sensor_id;sensor_type;location;lat;lon;timestamp;P1;durP1;ratioP1;P2;durP2;ratioP2
13032;SDS011;6583;42.632;23.298;2023-04-16T00:01:45;1.57;;;1.30;;
13032;SDS011;6583;42.632;23.298;2023-04-16T00:04:12;2.13;;;1.40;;
13032;SDS011;6583;42.632;23.298;2023-04-16T00:06:39;1.50;;;1.27;;
13032;SDS011;6583;42.632;23.298;2023-04-16T00:09:05;2.77;;;1.50;;
13032;SDS011;6583;42.632;23.298;2023-04-16T00:11:33;1.97;;;1.37;;
13032;SDS011;6583;42.632;23.298;2023-04-16T00:14:00;1.63;;;1.17;;
13032;SDS011;6583;42.632;23.298;2023-04-16T00:16:27;3.03;;;1.20;;
13032;SDS011;6583;42.632;23.298;2023-04-16T00:18:54;2.27;;;1.30;;
13032;SDS011;6583;42.632;23.298;2023-04-16T00:21:20;2.87;;;1.30;;
13032;SDS011;6583;42.632;23.298;2023-04-16T00:23:47;1.93;;;1.30;;
13032;SDS011;6583;42.632;23.298;2023-04-16T00:26:13;1.77;;;1.33;;
13032;SDS011;6583;42.632;23.298;2023-04-16T00:28:42;1.47;;;1.37;;
13032;SDS011;6583;42.632;23.298;2023-04-16T00:31:08;2.90;;;1.30;;
13032;SDS011;6583;42.632;23.298;2023-04-16T00:33:35;2.03;;;1.40;;
13032;SDS011;6583;42.632;23.298;2023-04-16T00:36:02;2.10;;;1.20;;
13032;SDS011;6583;42.632;23.298;2023-04-16T00:38:29;1.60;;;1.20;;
13032;SDS011;6583;42.632;23.298;2023-04-16T00:40:56;2.80;;;1.40;;
13032;SDS011;6583;42.632;23.298;2023-04-16T00:43:24;2.03;;;1.33;;
13032;SDS011;6583;42.632;23.298;2023-04-16T00:45:52;2.17;;;1.57;;
13032;SDS011;6583;42.632;23.298;2023-04-16T00:48:21;2.20;;;1.40;;
13032;SDS011;6583;42.632;23.298;2023-04-16T00:50:48;2.83;;;1.43;;
13032;SDS011;6583;42.632;23.298;2023-04-16T00:53:15;1.73;;;1.30;;
13032;SDS011;6583;42.632;23.298;2023-04-16T00:55:42;3.43;;;1.50;;
13032;SDS011;6583;42.632;23.298;2023-04-16T00:58:08;1.53;;;1.30;;
13032;SDS011;6583;42.632;23.298;2023-04-16T01:00:35;2.60;;;1.60;;
13032;SDS011;6583;42.632;23.298;2023-04-16T01:03:03;2.07;;;1.30;;
13032;SDS011;6583;42.632;23.298;2023-04-16T01:05:30;1.67;;;1.30;;
13032;SDS011;6583;42.632;23.298;2023-04-16T01:07:57;2.03;;;1.13;;
13032;SDS011;6583;42.632;23.298;2023-04-16T01:10:24;4.93;;;1.60;;
13032;SDS011;6583;42.632;23.298;2023-04-16T01:12:51;2.07;;;1.07;;
13032;SDS011;6583;42.632;23.298;2023-04-16T01:15:18;1.50;;;1.10;;
13032;SDS011;6583;42.632;23.298;2023-04-16T01:17:44;1.70;;;1.10;;
13032;SDS011;6583;42.632;23.298;2023-04-16T01:20:13;2.63;;;1.30;;
13032;SDS011;6583;42.632;23.298;2023-04-16T01:22:41;1.57;;;1.20;;
13032;SDS011;6583;42.632;23.298;2023-04-16T01:25:12;1.80;;;1.00;;
13032;SDS011;6583;42.632;23.298;2023-04-16T01:27:39;1.10;;;1.00;;
13032;SDS011;6583;42.632;23.298;2023-04-16T01:30:06;2.53;;;1.30;;
13032;SDS011;6583;42.632;23.298;2023-04-16T01:32:33;3.37;;;1.10;;
13032;SDS011;6583;42.632;23.298;2023-04-16T01:35:00;2.23;;;1.30;;
13032;SDS011;6583;42.632;23.298;2023-04-16T01:37:27;1.17;;;1.07;;
13032;SDS011;6583;42.632;23.298;2023-04-16T01:39:55;2.17;;;1.20;;
13032;SDS011;6583;42.632;23.298;2023-04-16T01:42:21;3.77;;;1.20;;
13032;SDS011;6583;42.632;23.298;2023-04-16T01:44:48;1.83;;;1.30;;
13032;SDS011;6583;42.632;23.298;2023-04-16T01:47:15;2.27;;;1.30;;
13032;SDS011;6583;42.632;23.298;2023-04-16T01:49:42;2.17;;;1.23;;
13032;SDS011;6583;42.632;23.298;2023-04-16T01:52:09;2.57;;;1.30;;
13032;SDS011;6583;42.632;23.298;2023-04-16T01:54:36;1.30;;;1.20;;
13032;SDS011;6583;42.632;23.298;2023-04-16T01:57:04;2.43;;;1.40;;
13032;SDS011;6583;42.632;23.298;2023-04-16T01:59:31;2.50;;;1.10;;
13032;SDS011;6583;42.632;23.298;2023-04-16T02:01:58;1.83;;;1.00;;
13032;SDS011;6583;42.632;23.298;2023-04-16T02:04:27;1.50;;;1.20;;
13032;SDS011;6583;42.632;23.298;2023-04-16T02:06:54;2.27;;;1.10;;
13032;SDS011;6583;42.632;23.298;2023-04-16T02:09:20;3.90;;;1.30;;
13032;SDS011;6583;42.632;23.298;2023-04-16T02:11:47;1.27;;;1.10;;
13032;SDS011;6583;42.632;23.298;2023-04-16T02:14:15;2.97;;;1.07;;
13032;SDS011;6583;42.632;23.298;2023-04-16T02:16:42;2.63;;;1.10;;
13032;SDS011;6583;42.632;23.298;2023-04-16T02:19:08;1.73;;;1.23;;
13032;SDS011;6583;42.632;23.298;2023-04-16T02:21:35;1.63;;;1.10;;
13032;SDS011;6583;42.632;23.298;2023-04-16T02:24:02;2.20;;;1.17;;
13032;SDS011;6583;42.632;23.298;2023-04-16T02:26:29;1.80;;;1.00;;
13032;SDS011;6583;42.632;23.298;2023-04-16T02:28:55;1.90;;;1.10;;
13032;SDS011;6583;42.632;23.298;2023-04-16T02:31:23;1.33;;;1.13;;
13032;SDS011;6583;42.632;23.298;2023-04-16T02:33:50;1.83;;;1.23;;
13032;SDS011;6583;42.632;23.298;2023-04-16T02:36:17;3.03;;;1.30;;
13032;SDS011;6583;42.632;23.298;2023-04-16T02:38:43;1.60;;;1.10;;
13032;SDS011;6583;42.632;23.298;2023-04-16T02:41:10;2.17;;;0.97;;
13032;SDS011;6583;42.632;23.298;2023-04-16T02:43:36;1.83;;;1.03;;
13032;SDS011;6583;42.632;23.298;2023-04-16T02:46:03;2.30;;;1.10;;
13032;SDS011;6583;42.632;23.298;2023-04-16T02:48:31;2.60;;;1.10;;
13032;SDS011;6583;42.632;23.298;2023-04-16T02:50:58;2.00;;;1.10;;
13032;SDS011;6583;42.632;23.298;2023-04-16T02:53:24;1.30;;;1.03;;
13032;SDS011;6583;42.632;23.298;2023-04-16T02:55:51;1.47;;;1.13;;
13032;SDS011;6583;42.632;23.298;2023-04-16T02:58:20;1.17;;;1.07;;
13032;SDS011;6583;42.632;23.298;2023-04-16T03:00:49;2.30;;;1.00;;
13032;SDS011;6583;42.632;23.298;2023-04-16T03:03:16;1.83;;;1.50;;
13032;SDS011;6583;42.632;23.298;2023-04-16T03:05:44;2.80;;;1.17;;
13032;SDS011;6583;42.632;23.298;2023-04-16T03:08:11;1.73;;;1.43;;
13032;SDS011;6583;42.632;23.298;2023-04-16T03:10:37;1.20;;;1.10;;
13032;SDS011;6583;42.632;23.298;2023-04-16T03:13:05;2.53;;;1.13;;
13032;SDS011;6583;42.632;23.298;2023-04-16T03:15:32;2.27;;;1.20;;
13032;SDS011;6583;42.632;23.298;2023-04-16T03:17:59;1.50;;;1.27;;
13032;SDS011;6583;42.632;23.298;2023-04-16T03:20:25;3.43;;;1.33;;
13032;SDS011;6583;42.632;23.298;2023-04-16T03:22:54;3.57;;;1.20;;
13032;SDS011;6583;42.632;23.298;2023-04-16T03:25:21;2.37;;;1.30;;
13032;SDS011;6583;42.632;23.298;2023-04-16T03:27:48;2.23;;;1.33;;
13032;SDS011;6583;42.632;23.298;2023-04-16T03:30:15;1.30;;;1.00;;
13032;SDS011;6583;42.632;23.298;2023-04-16T03:32:41;2.30;;;1.30;;
13032;SDS011;6583;42.632;23.298;2023-04-16T03:35:08;2.20;;;1.10;;
13032;SDS011;6583;42.632;23.298;2023-04-16T03:37:35;6.27;;;1.23;;
13032;SDS011;6583;42.632;23.298;2023-04-16T03:40:03;1.73;;;1.20;;
13032;SDS011;6583;42.632;23.298;2023-04-16T03:42:31;2.07;;;1.20;;
13032;SDS011;6583;42.632;23.298;2023-04-16T03:44:57;2.00;;;1.37;;
13032;SDS011;6583;42.632;23.298;2023-04-16T03:47:24;3.17;;;1.43;;
13032;SDS011;6583;42.632;23.298;2023-04-16T03:49:51;2.03;;;1.50;;
13032;SDS011;6583;42.632;23.298;2023-04-16T03:52:18;2.43;;;1.70;;
13032;SDS011;6583;42.632;23.298;2023-04-16T03:54:44;3.97;;;2.43;;
13032;SDS011;6583;42.632;23.298;2023-04-16T03:57:12;3.37;;;1.77;;
13032;SDS011;6583;42.632;23.298;2023-04-16T03:59:39;5.33;;;4.03;;
13032;SDS011;6583;42.632;23.298;2023-04-16T04:02:06;7.57;;;5.00;;
13032;SDS011;6583;42.632;23.298;2023-04-16T04:04:32;6.40;;;4.77;;
13032;SDS011;6583;42.632;23.298;2023-04-16T04:06:59;6.87;;;5.00;;
13032;SDS011;6583;42.632;23.298;2023-04-16T04:09:26;14.37;;;5.53;;
13032;SDS011;6583;42.632;23.298;2023-04-16T04:11:52;5.77;;;3.77;;
13032;SDS011;6583;42.632;23.298;2023-04-16T04:14:20;7.07;;;3.83;;
13032;SDS011;6583;42.632;23.298;2023-04-16T04:16:47;8.27;;;4.50;;
13032;SDS011;6583;42.632;23.298;2023-04-16T04:19:13;8.10;;;4.80;;
13032;SDS011;6583;42.632;23.298;2023-04-16T04:21:40;5.93;;;4.60;;
13032;SDS011;6583;42.632;23.298;2023-04-16T04:24:07;5.67;;;3.40;;
13032;SDS011;6583;42.632;23.298;2023-04-16T04:26:33;5.03;;;2.93;;
13032;SDS011;6583;42.632;23.298;2023-04-16T04:29:00;4.23;;;2.90;;
13032;SDS011;6583;42.632;23.298;2023-04-16T04:31:28;4.03;;;2.57;;
13032;SDS011;6583;42.632;23.298;2023-04-16T04:33:55;3.30;;;2.80;;
13032;SDS011;6583;42.632;23.298;2023-04-16T04:36:21;4.23;;;2.60;;
13032;SDS011;6583;42.632;23.298;2023-04-16T04:38:48;3.80;;;2.63;;
13032;SDS011;6583;42.632;23.298;2023-04-16T04:41:15;3.53;;;2.60;;
13032;SDS011;6583;42.632;23.298;2023-04-16T04:43:41;3.87;;;2.87;;
13032;SDS011;6583;42.632;23.298;2023-04-16T04:46:08;3.77;;;2.50;;
13032;SDS011;6583;42.632;23.298;2023-04-16T04:48:36;2.73;;;2.17;;
13032;SDS011;6583;42.632;23.298;2023-04-16T04:51:03;4.70;;;3.00;;
13032;SDS011;6583;42.632;23.298;2023-04-16T04:53:30;7.37;;;6.10;;
13032;SDS011;6583;42.632;23.298;2023-04-16T04:55:56;6.20;;;5.60;;
13032;SDS011;6583;42.632;23.298;2023-04-16T04:58:23;6.77;;;4.73;;
13032;SDS011;6583;42.632;23.298;2023-04-16T05:00:50;7.50;;;4.60;;
13032;SDS011;6583;42.632;23.298;2023-04-16T05:03:18;6.70;;;4.40;;
13032;SDS011;6583;42.632;23.298;2023-04-16T05:05:47;7.13;;;4.40;;
13032;SDS011;6583;42.632;23.298;2023-04-16T05:08:14;5.60;;;4.03;;
13032;SDS011;6583;42.632;23.298;2023-04-16T05:10:40;7.33;;;4.20;;
13032;SDS011;6583;42.632;23.298;2023-04-16T05:13:07;4.87;;;3.60;;
13032;SDS011;6583;42.632;23.298;2023-04-16T05:15:34;5.93;;;3.57;;
13032;SDS011;6583;42.632;23.298;2023-04-16T05:18:00;6.27;;;4.10;;
13032;SDS011;6583;42.632;23.298;2023-04-16T05:20:27;6.50;;;3.97;;
13032;SDS011;6583;42.632;23.298;2023-04-16T05:22:55;4.53;;;3.53;;
13032;SDS011;6583;42.632;23.298;2023-04-16T05:25:21;5.17;;;3.83;;
13032;SDS011;6583;42.632;23.298;2023-04-16T05:27:48;5.33;;;3.33;;
13032;SDS011;6583;42.632;23.298;2023-04-16T05:30:15;5.53;;;3.93;;
13032;SDS011;6583;42.632;23.298;2023-04-16T05:32:42;5.90;;;4.17;;
13032;SDS011;6583;42.632;23.298;2023-04-16T05:35:08;5.10;;;3.17;;
13032;SDS011;6583;42.632;23.298;2023-04-16T05:37:35;6.40;;;3.83;;
13032;SDS011;6583;42.632;23.298;2023-04-16T05:40:03;6.33;;;3.90;;
13032;SDS011;6583;42.632;23.298;2023-04-16T05:42:30;6.80;;;3.70;;
13032;SDS011;6583;42.632;23.298;2023-04-16T05:44:57;5.97;;;4.33;;
13032;SDS011;6583;42.632;23.298;2023-04-16T05:47:24;7.50;;;5.20;;
13032;SDS011;6583;42.632;23.298;2023-04-16T05:49:50;8.50;;;5.70;;
13032;SDS011;6583;42.632;23.298;2023-04-16T05:52:17;5.73;;;4.77;;
13032;SDS011;6583;42.632;23.298;2023-04-16T05:54:43;5.97;;;4.20;;
13032;SDS011;6583;42.632;23.298;2023-04-16T05:57:11;6.40;;;4.17;;
13032;SDS011;6583;42.632;23.298;2023-04-16T05:59:38;6.20;;;3.80;;
13032;SDS011;6583;42.632;23.298;2023-04-16T06:02:05;7.30;;;4.53;;
13032;SDS011;6583;42.632;23.298;2023-04-16T06:04:32;6.93;;;4.20;;
13032;SDS011;6583;42.632;23.298;2023-04-16T06:06:59;4.50;;;3.97;;
13032;SDS011;6583;42.632;23.298;2023-04-16T06:09:26;5.17;;;3.90;;
13032;SDS011;6583;42.632;23.298;2023-04-16T06:11:53;7.20;;;3.57;;
13032;SDS011;6583;42.632;23.298;2023-04-16T06:14:21;5.53;;;3.40;;
13032;SDS011;6583;42.632;23.298;2023-04-16T06:16:48;9.93;;;3.80;;
13032;SDS011;6583;42.632;23.298;2023-04-16T06:19:15;6.07;;;3.77;;
13032;SDS011;6583;42.632;23.298;2023-04-16T06:21:41;5.53;;;4.00;;
13032;SDS011;6583;42.632;23.298;2023-04-16T06:24:08;4.80;;;3.70;;
13032;SDS011;6583;42.632;23.298;2023-04-16T06:26:35;4.67;;;3.33;;
13032;SDS011;6583;42.632;23.298;2023-04-16T06:29:01;7.73;;;3.40;;
13032;SDS011;6583;42.632;23.298;2023-04-16T06:31:29;4.77;;;3.87;;
13032;SDS011;6583;42.632;23.298;2023-04-16T06:33:56;5.60;;;4.47;;
13032;SDS011;6583;42.632;23.298;2023-04-16T06:36:23;7.60;;;4.53;;
13032;SDS011;6583;42.632;23.298;2023-04-16T06:38:51;8.53;;;5.23;;
13032;SDS011;6583;42.632;23.298;2023-04-16T06:41:18;6.63;;;4.93;;
13032;SDS011;6583;42.632;23.298;2023-04-16T06:43:45;6.67;;;5.23;;
13032;SDS011;6583;42.632;23.298;2023-04-16T06:46:11;6.37;;;5.00;;
13032;SDS011;6583;42.632;23.298;2023-04-16T06:48:39;9.53;;;5.37;;
13032;SDS011;6583;42.632;23.298;2023-04-16T06:51:06;7.00;;;5.30;;
13032;SDS011;6583;42.632;23.298;2023-04-16T06:53:33;7.17;;;5.37;;
13032;SDS011;6583;42.632;23.298;2023-04-16T06:56:01;6.37;;;5.40;;
13032;SDS011;6583;42.632;23.298;2023-04-16T06:58:28;6.13;;;5.30;;
13032;SDS011;6583;42.632;23.298;2023-04-16T07:00:55;8.07;;;5.97;;
13032;SDS011;6583;42.632;23.298;2023-04-16T07:03:21;8.87;;;5.47;;
13032;SDS011;6583;42.632;23.298;2023-04-16T07:05:49;9.03;;;5.87;;
13032;SDS011;6583;42.632;23.298;2023-04-16T07:08:16;6.23;;;5.17;;
13032;SDS011;6583;42.632;23.298;2023-04-16T07:10:43;7.03;;;5.50;;
13032;SDS011;6583;42.632;23.298;2023-04-16T07:13:10;8.13;;;5.60;;
13032;SDS011;6583;42.632;23.298;2023-04-16T07:15:37;8.30;;;5.40;;
13032;SDS011;6583;42.632;23.298;2023-04-16T07:18:03;6.73;;;5.17;;
13032;SDS011;6583;42.632;23.298;2023-04-16T07:20:30;6.50;;;5.30;;
13032;SDS011;6583;42.632;23.298;2023-04-16T07:22:58;12.10;;;8.93;;
13032;SDS011;6583;42.632;23.298;2023-04-16T07:25:25;9.07;;;6.60;;
13032;SDS011;6583;42.632;23.298;2023-04-16T07:27:51;8.87;;;6.07;;
13032;SDS011;6583;42.632;23.298;2023-04-16T07:30:18;8.23;;;5.30;;
13032;SDS011;6583;42.632;23.298;2023-04-16T07:32:45;9.53;;;5.70;;
13032;SDS011;6583;42.632;23.298;2023-04-16T07:35:11;10.30;;;8.10;;
13032;SDS011;6583;42.632;23.298;2023-04-16T07:37:38;8.23;;;6.53;;
13032;SDS011;6583;42.632;23.298;2023-04-16T07:40:07;8.70;;;5.80;;
13032;SDS011;6583;42.632;23.298;2023-04-16T07:42:35;6.03;;;5.20;;
13032;SDS011;6583;42.632;23.298;2023-04-16T07:45:01;9.40;;;5.03;;
13032;SDS011;6583;42.632;23.298;2023-04-16T07:47:28;7.30;;;5.10;;
13032;SDS011;6583;42.632;23.298;2023-04-16T07:49:55;12.03;;;5.20;;
13032;SDS011;6583;42.632;23.298;2023-04-16T07:52:21;7.97;;;5.07;;
13032;SDS011;6583;42.632;23.298;2023-04-16T07:54:48;7.37;;;5.20;;
13032;SDS011;6583;42.632;23.298;2023-04-16T07:57:17;6.47;;;4.97;;
13032;SDS011;6583;42.632;23.298;2023-04-16T07:59:44;5.93;;;4.30;;
13032;SDS011;6583;42.632;23.298;2023-04-16T08:02:11;5.67;;;4.10;;
13032;SDS011;6583;42.632;23.298;2023-04-16T08:04:40;7.53;;;4.60;;
13032;SDS011;6583;42.632;23.298;2023-04-16T08:07:07;8.03;;;5.07;;
13032;SDS011;6583;42.632;23.298;2023-04-16T08:09:34;7.07;;;4.90;;
13032;SDS011;6583;42.632;23.298;2023-04-16T08:12:01;5.33;;;4.20;;
13032;SDS011;6583;42.632;23.298;2023-04-16T08:14:32;4.70;;;3.80;;
13032;SDS011;6583;42.632;23.298;2023-04-16T08:16:59;5.90;;;3.97;;
13032;SDS011;6583;42.632;23.298;2023-04-16T08:19:25;5.67;;;3.90;;
13032;SDS011;6583;42.632;23.298;2023-04-16T08:21:52;5.90;;;4.53;;
13032;SDS011;6583;42.632;23.298;2023-04-16T08:24:19;5.77;;;4.23;;
13032;SDS011;6583;42.632;23.298;2023-04-16T08:26:46;5.07;;;3.90;;
13032;SDS011;6583;42.632;23.298;2023-04-16T08:29:12;6.53;;;5.00;;
13032;SDS011;6583;42.632;23.298;2023-04-16T08:31:41;6.37;;;4.43;;
13032;SDS011;6583;42.632;23.298;2023-04-16T08:34:07;6.17;;;4.57;;
13032;SDS011;6583;42.632;23.298;2023-04-16T08:36:35;6.33;;;4.40;;
13032;SDS011;6583;42.632;23.298;2023-04-16T08:39:02;6.63;;;4.50;;
13032;SDS011;6583;42.632;23.298;2023-04-16T08:41:29;7.40;;;4.50;;
13032;SDS011;6583;42.632;23.298;2023-04-16T08:43:58;7.03;;;4.70;;
13032;SDS011;6583;42.632;23.298;2023-04-16T08:46:26;6.10;;;4.57;;
13032;SDS011;6583;42.632;23.298;2023-04-16T08:48:56;5.67;;;3.80;;
13032;SDS011;6583;42.632;23.298;2023-04-16T08:51:26;4.87;;;3.50;;
13032;SDS011;6583;42.632;23.298;2023-04-16T08:54:01;5.47;;;3.53;;
13032;SDS011;6583;42.632;23.298;2023-04-16T08:56:30;5.70;;;4.33;;
13032;SDS011;6583;42.632;23.298;2023-04-16T08:59:00;5.43;;;3.70;;
13032;SDS011;6583;42.632;23.298;2023-04-16T09:01:29;5.00;;;4.27;;
13032;SDS011;6583;42.632;23.298;2023-04-16T09:03:59;5.17;;;3.87;;
13032;SDS011;6583;42.632;23.298;2023-04-16T09:06:26;6.83;;;3.83;;
13032;SDS011;6583;42.632;23.298;2023-04-16T09:08:53;6.97;;;4.20;;
13032;SDS011;6583;42.632;23.298;2023-04-16T09:11:22;6.03;;;4.37;;
13032;SDS011;6583;42.632;23.298;2023-04-16T09:13:49;5.33;;;4.03;;
13032;SDS011;6583;42.632;23.298;2023-04-16T09:16:16;6.23;;;3.37;;
13032;SDS011;6583;42.632;23.298;2023-04-16T09:18:43;5.70;;;3.70;;
13032;SDS011;6583;42.632;23.298;2023-04-16T09:21:13;6.37;;;3.43;;
13032;SDS011;6583;42.632;23.298;2023-04-16T09:23:40;3.93;;;3.00;;
13032;SDS011;6583;42.632;23.298;2023-04-16T09:26:07;11.10;;;3.43;;
13032;SDS011;6583;42.632;23.298;2023-04-16T09:28:37;5.23;;;2.67;;
13032;SDS011;6583;42.632;23.298;2023-04-16T09:31:08;4.50;;;2.70;;
13032;SDS011;6583;42.632;23.298;2023-04-16T09:33:36;5.10;;;2.40;;
13032;SDS011;6583;42.632;23.298;2023-04-16T09:36:03;4.20;;;2.43;;
13032;SDS011;6583;42.632;23.298;2023-04-16T09:38:48;5.40;;;2.80;;
13032;SDS011;6583;42.632;23.298;2023-04-16T09:41:16;3.83;;;2.20;;
13032;SDS011;6583;42.632;23.298;2023-04-16T09:43:48;4.47;;;2.00;;
13032;SDS011;6583;42.632;23.298;2023-04-16T09:46:20;2.97;;;2.30;;
13032;SDS011;6583;42.632;23.298;2023-04-16T09:48:49;4.43;;;2.33;;
13032;SDS011;6583;42.632;23.298;2023-04-16T09:51:16;5.17;;;2.33;;
13032;SDS011;6583;42.632;23.298;2023-04-16T09:53:42;3.10;;;2.10;;
13032;SDS011;6583;42.632;23.298;2023-04-16T09:56:11;3.33;;;2.00;;
13032;SDS011;6583;42.632;23.298;2023-04-16T09:58:38;3.47;;;2.33;;
13032;SDS011;6583;42.632;23.298;2023-04-16T10:01:06;2.70;;;2.17;;
13032;SDS011;6583;42.632;23.298;2023-04-16T10:03:35;4.10;;;2.47;;
13032;SDS011;6583;42.632;23.298;2023-04-16T10:06:06;4.03;;;2.77;;
13032;SDS011;6583;42.632;23.298;2023-04-16T10:08:33;4.03;;;2.60;;
13032;SDS011;6583;42.632;23.298;2023-04-16T10:11:00;3.27;;;2.60;;
13032;SDS011;6583;42.632;23.298;2023-04-16T10:13:28;6.00;;;2.67;;
13032;SDS011;6583;42.632;23.298;2023-04-16T10:15:56;4.57;;;2.80;;
13032;SDS011;6583;42.632;23.298;2023-04-16T10:18:23;4.87;;;2.80;;
13032;SDS011;6583;42.632;23.298;2023-04-16T10:20:49;3.27;;;2.70;;
13032;SDS011;6583;42.632;23.298;2023-04-16T10:23:16;5.23;;;2.97;;
13032;SDS011;6583;42.632;23.298;2023-04-16T10:25:45;4.77;;;2.87;;
13032;SDS011;6583;42.632;23.298;2023-04-16T10:28:13;6.10;;;3.07;;
13032;SDS011;6583;42.632;23.298;2023-04-16T10:30:42;3.50;;;2.57;;
13032;SDS011;6583;42.632;23.298;2023-04-16T10:33:16;3.00;;;2.70;;
13032;SDS011;6583;42.632;23.298;2023-04-16T10:35:45;3.93;;;2.73;;
13032;SDS011;6583;42.632;23.298;2023-04-16T10:38:21;5.17;;;3.13;;
13032;SDS011;6583;42.632;23.298;2023-04-16T10:40:50;9.50;;;3.20;;
13032;SDS011;6583;42.632;23.298;2023-04-16T10:43:23;7.50;;;3.10;;
13032;SDS011;6583;42.632;23.298;2023-04-16T10:45:52;5.33;;;2.77;;
13032;SDS011;6583;42.632;23.298;2023-04-16T10:48:19;4.23;;;2.80;;
13032;SDS011;6583;42.632;23.298;2023-04-16T10:50:52;5.13;;;2.80;;
13032;SDS011;6583;42.632;23.298;2023-04-16T10:53:22;4.40;;;3.00;;
13032;SDS011;6583;42.632;23.298;2023-04-16T10:58:37;4.40;;;3.00;;
13032;SDS011;6583;42.632;23.298;2023-04-16T11:01:11;4.80;;;2.83;;
13032;SDS011;6583;42.632;23.298;2023-04-16T11:03:42;4.73;;;2.90;;
13032;SDS011;6583;42.632;23.298;2023-04-16T11:06:10;3.87;;;2.73;;
13032;SDS011;6583;42.632;23.298;2023-04-16T11:08:38;4.23;;;2.60;;
13032;SDS011;6583;42.632;23.298;2023-04-16T11:11:06;3.57;;;2.47;;
13032;SDS011;6583;42.632;23.298;2023-04-16T11:13:33;4.47;;;2.80;;
13032;SDS011;6583;42.632;23.298;2023-04-16T11:16:01;4.20;;;2.67;;
13032;SDS011;6583;42.632;23.298;2023-04-16T11:18:30;4.93;;;3.10;;
13032;SDS011;6583;42.632;23.298;2023-04-16T11:20:57;4.87;;;2.80;;
13032;SDS011;6583;42.632;23.298;2023-04-16T11:23:23;5.33;;;2.60;;
13032;SDS011;6583;42.632;23.298;2023-04-16T11:25:50;3.70;;;2.60;;
13032;SDS011;6583;42.632;23.298;2023-04-16T11:28:30;5.20;;;3.00;;
13032;SDS011;6583;42.632;23.298;2023-04-16T11:30:57;3.83;;;2.80;;
13032;SDS011;6583;42.632;23.298;2023-04-16T11:33:24;4.50;;;3.17;;
13032;SDS011;6583;42.632;23.298;2023-04-16T11:35:56;4.20;;;2.90;;
13032;SDS011;6583;42.632;23.298;2023-04-16T11:38:31;3.40;;;2.90;;
13032;SDS011;6583;42.632;23.298;2023-04-16T11:40:59;5.43;;;2.97;;
13032;SDS011;6583;42.632;23.298;2023-04-16T11:43:25;4.73;;;2.90;;
13032;SDS011;6583;42.632;23.298;2023-04-16T11:45:56;4.00;;;2.90;;
13032;SDS011;6583;42.632;23.298;2023-04-16T11:48:23;4.30;;;2.93;;
13032;SDS011;6583;42.632;23.298;2023-04-16T11:50:54;6.87;;;3.07;;
13032;SDS011;6583;42.632;23.298;2023-04-16T11:53:23;4.03;;;2.43;;
13032;SDS011;6583;42.632;23.298;2023-04-16T11:55:49;4.60;;;2.80;;
13032;SDS011;6583;42.632;23.298;2023-04-16T11:58:16;4.50;;;2.87;;
13032;SDS011;6583;42.632;23.298;2023-04-16T12:00:43;4.50;;;2.40;;
13032;SDS011;6583;42.632;23.298;2023-04-16T12:03:10;5.13;;;2.93;;
13032;SDS011;6583;42.632;23.298;2023-04-16T12:05:37;5.70;;;2.90;;
13032;SDS011;6583;42.632;23.298;2023-04-16T12:08:06;4.80;;;2.90;;
13032;SDS011;6583;42.632;23.298;2023-04-16T12:10:34;4.30;;;3.00;;
13032;SDS011;6583;42.632;23.298;2023-04-16T12:13:08;6.97;;;2.83;;
13032;SDS011;6583;42.632;23.298;2023-04-16T12:15:43;4.00;;;2.63;;
13032;SDS011;6583;42.632;23.298;2023-04-16T12:18:11;6.57;;;2.80;;
13032;SDS011;6583;42.632;23.298;2023-04-16T12:20:38;3.00;;;2.30;;
13032;SDS011;6583;42.632;23.298;2023-04-16T12:23:08;4.43;;;2.60;;
13032;SDS011;6583;42.632;23.298;2023-04-16T12:25:35;5.43;;;2.70;;
13032;SDS011;6583;42.632;23.298;2023-04-16T12:28:02;3.00;;;2.30;;
13032;SDS011;6583;42.632;23.298;2023-04-16T12:30:29;3.70;;;2.42;;
13032;SDS011;6583;42.632;23.298;2023-04-16T12:35:41;3.83;;;2.85;;
13032;SDS011;6583;42.632;23.298;2023-04-16T12:38:10;7.25;;;2.95;;
13032;SDS011;6583;42.632;23.298;2023-04-16T12:40:39;3.42;;;2.67;;
13032;SDS011;6583;42.632;23.298;2023-04-16T12:43:05;6.10;;;2.72;;
13032;SDS011;6583;42.632;23.298;2023-04-16T12:45:33;3.35;;;2.35;;
13032;SDS011;6583;42.632;23.298;2023-04-16T12:48:00;4.47;;;2.78;;
13032;SDS011;6583;42.632;23.298;2023-04-16T12:50:27;6.43;;;2.60;;
13032;SDS011;6583;42.632;23.298;2023-04-16T12:52:54;3.42;;;2.50;;
13032;SDS011;6583;42.632;23.298;2023-04-16T12:55:22;5.78;;;2.72;;
13032;SDS011;6583;42.632;23.298;2023-04-16T12:57:49;3.28;;;2.47;;
13032;SDS011;6583;42.632;23.298;2023-04-16T13:00:17;4.00;;;2.53;;
13032;SDS011;6583;42.632;23.298;2023-04-16T13:02:43;3.97;;;2.50;;
13032;SDS011;6583;42.632;23.298;2023-04-16T13:05:10;3.83;;;2.33;;
13032;SDS011;6583;42.632;23.298;2023-04-16T13:07:38;4.00;;;2.43;;
13032;SDS011;6583;42.632;23.298;2023-04-16T13:10:05;5.32;;;2.25;;
13032;SDS011;6583;42.632;23.298;2023-04-16T13:12:34;4.50;;;2.30;;
13032;SDS011;6583;42.632;23.298;2023-04-16T13:15:01;2.67;;;2.35;;
13032;SDS011;6583;42.632;23.298;2023-04-16T13:17:27;5.45;;;2.40;;
13032;SDS011;6583;42.632;23.298;2023-04-16T13:19:54;5.30;;;2.67;;
13032;SDS011;6583;42.632;23.298;2023-04-16T13:22:21;8.03;;;2.97;;
13032;SDS011;6583;42.632;23.298;2023-04-16T13:24:47;4.63;;;2.00;;
13032;SDS011;6583;42.632;23.298;2023-04-16T13:27:14;4.70;;;2.50;;
13032;SDS011;6583;42.632;23.298;2023-04-16T13:29:42;4.50;;;2.60;;
13032;SDS011;6583;42.632;23.298;2023-04-16T13:32:09;6.30;;;2.70;;
13032;SDS011;6583;42.632;23.298;2023-04-16T13:34:37;6.30;;;3.20;;
13032;SDS011;6583;42.632;23.298;2023-04-16T13:37:04;6.37;;;2.80;;
13032;SDS011;6583;42.632;23.298;2023-04-16T13:39:31;3.03;;;2.57;;
13032;SDS011;6583;42.632;23.298;2023-04-16T13:41:58;6.17;;;2.60;;
13032;SDS011;6583;42.632;23.298;2023-04-16T13:44:25;4.53;;;2.57;;
13032;SDS011;6583;42.632;23.298;2023-04-16T13:46:54;4.27;;;2.70;;
13032;SDS011;6583;42.632;23.298;2023-04-16T13:49:20;4.50;;;2.80;;
13032;SDS011;6583;42.632;23.298;2023-04-16T13:51:47;4.20;;;2.67;;
13032;SDS011;6583;42.632;23.298;2023-04-16T13:54:14;3.30;;;2.60;;
13032;SDS011;6583;42.632;23.298;2023-04-16T13:56:41;4.00;;;2.63;;
13032;SDS011;6583;42.632;23.298;2023-04-16T13:59:07;4.23;;;2.77;;
13032;SDS011;6583;42.632;23.298;2023-04-16T14:01:34;4.10;;;3.00;;
13032;SDS011;6583;42.632;23.298;2023-04-16T14:04:02;3.67;;;2.67;;
13032;SDS011;6583;42.632;23.298;2023-04-16T14:06:30;3.27;;;2.70;;
13032;SDS011;6583;42.632;23.298;2023-04-16T14:08:57;5.57;;;2.80;;
13032;SDS011;6583;42.632;23.298;2023-04-16T14:11:23;5.83;;;2.83;;
13032;SDS011;6583;42.632;23.298;2023-04-16T14:13:50;3.07;;;2.77;;
13032;SDS011;6583;42.632;23.298;2023-04-16T14:16:17;4.93;;;2.87;;
13032;SDS011;6583;42.632;23.298;2023-04-16T14:18:44;6.73;;;3.17;;
13032;SDS011;6583;42.632;23.298;2023-04-16T14:21:12;4.83;;;2.73;;
13032;SDS011;6583;42.632;23.298;2023-04-16T14:23:39;4.27;;;3.20;;
13032;SDS011;6583;42.632;23.298;2023-04-16T14:26:07;5.27;;;3.00;;
13032;SDS011;6583;42.632;23.298;2023-04-16T14:28:33;4.80;;;2.90;;
13032;SDS011;6583;42.632;23.298;2023-04-16T14:31:00;5.43;;;3.50;;
13032;SDS011;6583;42.632;23.298;2023-04-16T14:33:27;5.73;;;3.90;;
13032;SDS011;6583;42.632;23.298;2023-04-16T14:35:54;8.33;;;4.33;;
13032;SDS011;6583;42.632;23.298;2023-04-16T14:38:22;6.37;;;5.20;;
13032;SDS011;6583;42.632;23.298;2023-04-16T14:40:49;5.70;;;4.33;;
13032;SDS011;6583;42.632;23.298;2023-04-16T14:43:15;7.40;;;4.20;;
13032;SDS011;6583;42.632;23.298;2023-04-16T14:45:42;7.23;;;4.97;;
13032;SDS011;6583;42.632;23.298;2023-04-16T14:48:09;7.07;;;4.77;;
13032;SDS011;6583;42.632;23.298;2023-04-16T14:50:35;5.23;;;3.90;;
13032;SDS011;6583;42.632;23.298;2023-04-16T14:53:03;5.47;;;4.10;;
13032;SDS011;6583;42.632;23.298;2023-04-16T14:55:31;6.27;;;3.80;;